sensor_id;sensor_type;location;lat;lon;timestamp;P1;durP1;ratioP1;P2;durP2;ratioP2
13797;SDS011;6970;51.340;3.240;2022-07-05T00:00:24;6.60;;;2.90;;
13797;SDS011;6970;51.340;3.240;2022-07-05T00:02:51;6.53;;;2.27;;
13797;SDS011;6970;51.340;3.240;2022-07-05T00:05:19;8.00;;;2.73;;
13797;SDS011;6970;51.340;3.240;2022-07-05T00:07:46;5.13;;;2.40;;
13797;SDS011;6970;51.340;3.240;2022-07-05T00:10:13;3.93;;;2.40;;
13797;SDS011;6970;51.340;3.240;2022-07-05T00:12:40;8.00;;;3.23;;
13797;SDS011;6970;51.340;3.240;2022-07-05T00:15:07;3.37;;;2.03;;
13797;SDS011;6970;51.340;3.240;2022-07-05T00:17:34;4.30;;;2.37;;
13797;SDS011;6970;51.340;3.240;2022-07-05T00:20:02;4.20;;;2.10;;
13797;SDS011;6970;51.340;3.240;2022-07-05T00:22:30;5.03;;;2.30;;
13797;SDS011;6970;51.340;3.240;2022-07-05T00:24:57;4.20;;;2.23;;
13797;SDS011;6970;51.340;3.240;2022-07-05T00:27:24;7.80;;;2.27;;
13797;SDS011;6970;51.340;3.240;2022-07-05T00:29:51;6.77;;;3.00;;
13797;SDS011;6970;51.340;3.240;2022-07-05T00:32:18;5.70;;;2.93;;
13797;SDS011;6970;51.340;3.240;2022-07-05T00:34:44;5.20;;;2.40;;
13797;SDS011;6970;51.340;3.240;2022-07-05T00:37:12;7.40;;;3.00;;
13797;SDS011;6970;51.340;3.240;2022-07-05T00:39:39;6.77;;;2.87;;
13797;SDS011;6970;51.340;3.240;2022-07-05T00:42:07;4.20;;;2.53;;
13797;SDS011;6970;51.340;3.240;2022-07-05T00:44:34;4.90;;;2.90;;
13797;SDS011;6970;51.340;3.240;2022-07-05T00:47:04;4.47;;;2.50;;
13797;SDS011;6970;51.340;3.240;2022-07-05T00:49:32;5.50;;;3.20;;
13797;SDS011;6970;51.340;3.240;2022-07-05T00:52:00;6.03;;;3.20;;
13797;SDS011;6970;51.340;3.240;2022-07-05T00:54:45;5.37;;;3.73;;
13797;SDS011;6970;51.340;3.240;2022-07-05T00:57:13;7.83;;;2.83;;
13797;SDS011;6970;51.340;3.240;2022-07-05T00:59:40;5.30;;;3.27;;
13797;SDS011;6970;51.340;3.240;2022-07-05T01:02:07;4.73;;;3.53;;
13797;SDS011;6970;51.340;3.240;2022-07-05T01:04:34;4.27;;;3.03;;
13797;SDS011;6970;51.340;3.240;2022-07-05T01:07:01;5.87;;;3.53;;
13797;SDS011;6970;51.340;3.240;2022-07-05T01:09:30;5.67;;;3.70;;
13797;SDS011;6970;51.340;3.240;2022-07-05T01:11:59;6.87;;;2.77;;
13797;SDS011;6970;51.340;3.240;2022-07-05T01:14:26;4.20;;;3.00;;
13797;SDS011;6970;51.340;3.240;2022-07-05T01:16:53;4.90;;;3.37;;
13797;SDS011;6970;51.340;3.240;2022-07-05T01:19:21;6.63;;;2.93;;
13797;SDS011;6970;51.340;3.240;2022-07-05T01:21:50;5.13;;;3.10;;
13797;SDS011;6970;51.340;3.240;2022-07-05T01:24:18;3.13;;;2.80;;
13797;SDS011;6970;51.340;3.240;2022-07-05T01:26:47;6.70;;;3.90;;
13797;SDS011;6970;51.340;3.240;2022-07-05T01:29:15;6.20;;;3.30;;
13797;SDS011;6970;51.340;3.240;2022-07-05T01:31:42;3.80;;;3.40;;
13797;SDS011;6970;51.340;3.240;2022-07-05T01:34:10;6.37;;;3.93;;
13797;SDS011;6970;51.340;3.240;2022-07-05T01:36:37;8.17;;;3.63;;
13797;SDS011;6970;51.340;3.240;2022-07-05T01:39:06;5.70;;;3.30;;
13797;SDS011;6970;51.340;3.240;2022-07-05T01:41:34;8.07;;;4.53;;
13797;SDS011;6970;51.340;3.240;2022-07-05T01:44:02;8.90;;;4.40;;
13797;SDS011;6970;51.340;3.240;2022-07-05T01:46:30;9.73;;;4.10;;
13797;SDS011;6970;51.340;3.240;2022-07-05T01:49:09;6.63;;;3.27;;
13797;SDS011;6970;51.340;3.240;2022-07-05T01:52:01;6.50;;;4.23;;
13797;SDS011;6970;51.340;3.240;2022-07-05T01:54:28;10.13;;;4.07;;
13797;SDS011;6970;51.340;3.240;2022-07-05T01:56:55;9.27;;;4.13;;
13797;SDS011;6970;51.340;3.240;2022-07-05T01:59:22;6.40;;;3.50;;
13797;SDS011;6970;51.340;3.240;2022-07-05T02:01:49;5.07;;;3.90;;
13797;SDS011;6970;51.340;3.240;2022-07-05T02:04:15;6.87;;;3.67;;
13797;SDS011;6970;51.340;3.240;2022-07-05T02:06:44;5.10;;;3.77;;
13797;SDS011;6970;51.340;3.240;2022-07-05T02:09:15;9.23;;;4.40;;
13797;SDS011;6970;51.340;3.240;2022-07-05T02:11:42;5.10;;;4.07;;
13797;SDS011;6970;51.340;3.240;2022-07-05T02:14:10;5.13;;;3.77;;
13797;SDS011;6970;51.340;3.240;2022-07-05T02:16:38;7.30;;;4.33;;
13797;SDS011;6970;51.340;3.240;2022-07-05T02:19:05;7.83;;;3.63;;
13797;SDS011;6970;51.340;3.240;2022-07-05T02:21:32;5.53;;;3.60;;
13797;SDS011;6970;51.340;3.240;2022-07-05T02:23:59;8.40;;;4.60;;
13797;SDS011;6970;51.340;3.240;2022-07-05T02:26:26;6.10;;;3.90;;
13797;SDS011;6970;51.340;3.240;2022-07-05T02:28:53;6.77;;;4.17;;
13797;SDS011;6970;51.340;3.240;2022-07-05T02:31:20;7.57;;;4.60;;
13797;SDS011;6970;51.340;3.240;2022-07-05T02:33:47;6.47;;;4.17;;
13797;SDS011;6970;51.340;3.240;2022-07-05T02:36:14;6.23;;;4.03;;
13797;SDS011;6970;51.340;3.240;2022-07-05T02:38:41;8.10;;;4.80;;
13797;SDS011;6970;51.340;3.240;2022-07-05T02:41:08;6.27;;;4.40;;
13797;SDS011;6970;51.340;3.240;2022-07-05T02:43:36;5.57;;;4.87;;
13797;SDS011;6970;51.340;3.240;2022-07-05T02:46:04;8.37;;;5.17;;
13797;SDS011;6970;51.340;3.240;2022-07-05T02:48:34;5.50;;;4.40;;
13797;SDS011;6970;51.340;3.240;2022-07-05T02:51:02;5.83;;;4.37;;
13797;SDS011;6970;51.340;3.240;2022-07-05T02:53:30;7.27;;;4.90;;
13797;SDS011;6970;51.340;3.240;2022-07-05T02:55:57;5.30;;;4.33;;
13797;SDS011;6970;51.340;3.240;2022-07-05T02:58:24;8.80;;;4.93;;
13797;SDS011;6970;51.340;3.240;2022-07-05T03:00:51;13.03;;;5.77;;
13797;SDS011;6970;51.340;3.240;2022-07-05T03:03:18;7.10;;;4.43;;
13797;SDS011;6970;51.340;3.240;2022-07-05T03:05:45;6.90;;;5.10;;
13797;SDS011;6970;51.340;3.240;2022-07-05T03:08:12;6.77;;;4.57;;
13797;SDS011;6970;51.340;3.240;2022-07-05T03:10:39;9.77;;;5.33;;
13797;SDS011;6970;51.340;3.240;2022-07-05T03:13:06;8.00;;;6.10;;
13797;SDS011;6970;51.340;3.240;2022-07-05T03:15:33;6.17;;;5.50;;
13797;SDS011;6970;51.340;3.240;2022-07-05T03:18:00;9.47;;;5.93;;
13797;SDS011;6970;51.340;3.240;2022-07-05T03:20:27;7.97;;;5.60;;
13797;SDS011;6970;51.340;3.240;2022-07-05T03:22:55;6.83;;;5.60;;
13797;SDS011;6970;51.340;3.240;2022-07-05T03:25:22;12.10;;;6.70;;
13797;SDS011;6970;51.340;3.240;2022-07-05T03:27:49;8.00;;;5.80;;
13797;SDS011;6970;51.340;3.240;2022-07-05T03:30:16;10.43;;;5.90;;
13797;SDS011;6970;51.340;3.240;2022-07-05T03:32:43;11.03;;;6.47;;
13797;SDS011;6970;51.340;3.240;2022-07-05T03:35:09;6.60;;;5.53;;
13797;SDS011;6970;51.340;3.240;2022-07-05T03:37:36;8.87;;;6.80;;
13797;SDS011;6970;51.340;3.240;2022-07-05T03:40:04;12.10;;;6.87;;
13797;SDS011;6970;51.340;3.240;2022-07-05T03:42:31;8.40;;;7.07;;
13797;SDS011;6970;51.340;3.240;2022-07-05T03:45:01;8.77;;;5.77;;
13797;SDS011;6970;51.340;3.240;2022-07-05T03:47:29;11.73;;;6.27;;
13797;SDS011;6970;51.340;3.240;2022-07-05T03:49:56;9.83;;;5.70;;
13797;SDS011;6970;51.340;3.240;2022-07-05T03:52:23;11.07;;;7.27;;
13797;SDS011;6970;51.340;3.240;2022-07-05T03:54:52;8.40;;;6.87;;
13797;SDS011;6970;51.340;3.240;2022-07-05T03:57:19;8.50;;;6.57;;
13797;SDS011;6970;51.340;3.240;2022-07-05T03:59:46;7.37;;;6.77;;
13797;SDS011;6970;51.340;3.240;2022-07-05T04:02:14;9.80;;;6.13;;
13797;SDS011;6970;51.340;3.240;2022-07-05T04:04:41;9.00;;;6.67;;
13797;SDS011;6970;51.340;3.240;2022-07-05T04:07:08;8.63;;;5.63;;
13797;SDS011;6970;51.340;3.240;2022-07-05T04:09:35;11.90;;;5.97;;
13797;SDS011;6970;51.340;3.240;2022-07-05T04:12:02;9.80;;;6.83;;
13797;SDS011;6970;51.340;3.240;2022-07-05T04:14:29;13.40;;;6.93;;
13797;SDS011;6970;51.340;3.240;2022-07-05T04:16:57;10.57;;;6.47;;
13797;SDS011;6970;51.340;3.240;2022-07-05T04:19:23;7.23;;;6.43;;
13797;SDS011;6970;51.340;3.240;2022-07-05T04:21:51;9.00;;;6.37;;
13797;SDS011;6970;51.340;3.240;2022-07-05T04:24:17;7.53;;;6.07;;
13797;SDS011;6970;51.340;3.240;2022-07-05T04:26:44;7.23;;;5.70;;
13797;SDS011;6970;51.340;3.240;2022-07-05T04:29:11;6.63;;;5.93;;
13797;SDS011;6970;51.340;3.240;2022-07-05T04:31:38;8.00;;;5.97;;
13797;SDS011;6970;51.340;3.240;2022-07-05T04:34:05;10.60;;;6.50;;
13797;SDS011;6970;51.340;3.240;2022-07-05T04:36:33;10.83;;;6.20;;
13797;SDS011;6970;51.340;3.240;2022-07-05T04:39:00;8.83;;;6.27;;
13797;SDS011;6970;51.340;3.240;2022-07-05T04:41:27;10.33;;;7.40;;
13797;SDS011;6970;51.340;3.240;2022-07-05T04:43:57;10.80;;;7.13;;
13797;SDS011;6970;51.340;3.240;2022-07-05T04:46:24;13.20;;;6.97;;
13797;SDS011;6970;51.340;3.240;2022-07-05T04:48:52;7.33;;;6.33;;
13797;SDS011;6970;51.340;3.240;2022-07-05T04:53:51;8.17;;;6.13;;
13797;SDS011;6970;51.340;3.240;2022-07-05T04:58:48;11.47;;;6.50;;
13797;SDS011;6970;51.340;3.240;2022-07-05T05:01:16;11.40;;;6.50;;
13797;SDS011;6970;51.340;3.240;2022-07-05T05:03:43;8.43;;;6.33;;
13797;SDS011;6970;51.340;3.240;2022-07-05T05:08:41;8.77;;;6.03;;
13797;SDS011;6970;51.340;3.240;2022-07-05T05:11:09;11.67;;;5.67;;
13797;SDS011;6970;51.340;3.240;2022-07-05T05:13:39;10.20;;;5.83;;
13797;SDS011;6970;51.340;3.240;2022-07-05T05:16:06;7.53;;;6.20;;
13797;SDS011;6970;51.340;3.240;2022-07-05T05:18:36;10.53;;;5.60;;
13797;SDS011;6970;51.340;3.240;2022-07-05T05:21:04;7.00;;;5.20;;
13797;SDS011;6970;51.340;3.240;2022-07-05T05:26:01;7.40;;;5.53;;
13797;SDS011;6970;51.340;3.240;2022-07-05T05:28:29;7.77;;;5.90;;
13797;SDS011;6970;51.340;3.240;2022-07-05T05:30:56;8.30;;;5.90;;
13797;SDS011;6970;51.340;3.240;2022-07-05T05:33:23;6.73;;;5.37;;
13797;SDS011;6970;51.340;3.240;2022-07-05T05:35:53;6.83;;;5.20;;
13797;SDS011;6970;51.340;3.240;2022-07-05T05:38:20;8.37;;;6.13;;
13797;SDS011;6970;51.340;3.240;2022-07-05T05:40:47;5.90;;;5.30;;
13797;SDS011;6970;51.340;3.240;2022-07-05T05:43:16;9.00;;;5.93;;
13797;SDS011;6970;51.340;3.240;2022-07-05T05:48:13;7.33;;;5.67;;
13797;SDS011;6970;51.340;3.240;2022-07-05T05:50:41;12.53;;;6.40;;
13797;SDS011;6970;51.340;3.240;2022-07-05T05:53:12;9.40;;;5.37;;
13797;SDS011;6970;51.340;3.240;2022-07-05T05:55:39;6.50;;;4.00;;
13797;SDS011;6970;51.340;3.240;2022-07-05T05:58:18;4.37;;;3.50;;
13797;SDS011;6970;51.340;3.240;2022-07-05T06:00:48;2.90;;;2.67;;
13797;SDS011;6970;51.340;3.240;2022-07-05T06:03:26;4.03;;;2.13;;
13797;SDS011;6970;51.340;3.240;2022-07-05T06:05:56;6.00;;;2.30;;
13797;SDS011;6970;51.340;3.240;2022-07-05T06:08:26;4.50;;;2.00;;
13797;SDS011;6970;51.340;3.240;2022-07-05T06:10:56;2.07;;;1.30;;
13797;SDS011;6970;51.340;3.240;2022-07-05T06:13:32;2.13;;;1.17;;
13797;SDS011;6970;51.340;3.240;2022-07-05T06:16:01;1.60;;;1.50;;
13797;SDS011;6970;51.340;3.240;2022-07-05T06:18:30;2.73;;;1.10;;
13797;SDS011;6970;51.340;3.240;2022-07-05T06:23:31;3.63;;;1.50;;
13797;SDS011;6970;51.340;3.240;2022-07-05T06:26:01;1.90;;;1.10;;
13797;SDS011;6970;51.340;3.240;2022-07-05T06:28:28;2.80;;;1.20;;
13797;SDS011;6970;51.340;3.240;2022-07-05T06:30:55;1.00;;;0.97;;
13797;SDS011;6970;51.340;3.240;2022-07-05T06:33:22;2.83;;;0.97;;
13797;SDS011;6970;51.340;3.240;2022-07-05T06:35:49;1.20;;;0.90;;
13797;SDS011;6970;51.340;3.240;2022-07-05T06:38:16;2.40;;;1.10;;
13797;SDS011;6970;51.340;3.240;2022-07-05T06:40:43;1.37;;;0.80;;
13797;SDS011;6970;51.340;3.240;2022-07-05T06:43:12;4.27;;;0.97;;
13797;SDS011;6970;51.340;3.240;2022-07-05T06:45:41;3.57;;;0.87;;
13797;SDS011;6970;51.340;3.240;2022-07-05T06:50:39;1.37;;;0.70;;
13797;SDS011;6970;51.340;3.240;2022-07-05T06:53:09;1.60;;;1.00;;
13797;SDS011;6970;51.340;3.240;2022-07-05T06:58:23;4.50;;;1.17;;
13797;SDS011;6970;51.340;3.240;2022-07-05T07:00:53;2.67;;;1.00;;
13797;SDS011;6970;51.340;3.240;2022-07-05T07:03:41;2.23;;;1.00;;
13797;SDS011;6970;51.340;3.240;2022-07-05T07:08:58;2.17;;;0.87;;
13797;SDS011;6970;51.340;3.240;2022-07-05T07:11:44;1.57;;;0.80;;
13797;SDS011;6970;51.340;3.240;2022-07-05T07:14:11;1.50;;;0.90;;
13797;SDS011;6970;51.340;3.240;2022-07-05T07:16:38;2.83;;;1.27;;
13797;SDS011;6970;51.340;3.240;2022-07-05T07:19:07;1.83;;;0.90;;
13797;SDS011;6970;51.340;3.240;2022-07-05T07:21:40;1.70;;;0.97;;
13797;SDS011;6970;51.340;3.240;2022-07-05T07:24:11;1.10;;;0.90;;
13797;SDS011;6970;51.340;3.240;2022-07-05T07:26:39;1.37;;;0.87;;
13797;SDS011;6970;51.340;3.240;2022-07-05T07:29:24;1.03;;;0.90;;
13797;SDS011;6970;51.340;3.240;2022-07-05T07:31:52;0.87;;;0.50;;
13797;SDS011;6970;51.340;3.240;2022-07-05T07:36:53;2.10;;;0.60;;
13797;SDS011;6970;51.340;3.240;2022-07-05T07:39:23;2.20;;;0.90;;
13797;SDS011;6970;51.340;3.240;2022-07-05T07:41:53;1.40;;;0.60;;
13797;SDS011;6970;51.340;3.240;2022-07-05T07:44:20;2.57;;;1.00;;
13797;SDS011;6970;51.340;3.240;2022-07-05T07:46:48;1.90;;;0.60;;
13797;SDS011;6970;51.340;3.240;2022-07-05T07:49:16;4.10;;;0.80;;
13797;SDS011;6970;51.340;3.240;2022-07-05T07:51:44;2.37;;;0.70;;
13797;SDS011;6970;51.340;3.240;2022-07-05T07:54:12;4.60;;;1.03;;
13797;SDS011;6970;51.340;3.240;2022-07-05T07:56:40;1.03;;;0.57;;
13797;SDS011;6970;51.340;3.240;2022-07-05T07:59:07;3.13;;;0.63;;
13797;SDS011;6970;51.340;3.240;2022-07-05T08:01:35;1.53;;;0.70;;
13797;SDS011;6970;51.340;3.240;2022-07-05T08:04:12;2.87;;;0.70;;
13797;SDS011;6970;51.340;3.240;2022-07-05T08:14:13;1.07;;;0.60;;
13797;SDS011;6970;51.340;3.240;2022-07-05T08:16:44;5.40;;;0.90;;
13797;SDS011;6970;51.340;3.240;2022-07-05T08:19:18;1.30;;;0.50;;
13797;SDS011;6970;51.340;3.240;2022-07-05T08:22:08;3.07;;;0.70;;
13797;SDS011;6970;51.340;3.240;2022-07-05T08:27:08;1.43;;;0.50;;
13797;SDS011;6970;51.340;3.240;2022-07-05T08:32:06;2.67;;;0.80;;
13797;SDS011;6970;51.340;3.240;2022-07-05T08:37:05;4.13;;;0.90;;
13797;SDS011;6970;51.340;3.240;2022-07-05T08:42:10;0.77;;;0.53;;
13797;SDS011;6970;51.340;3.240;2022-07-05T08:47:11;2.20;;;0.80;;
13797;SDS011;6970;51.340;3.240;2022-07-05T08:49:41;2.50;;;1.00;;
13797;SDS011;6970;51.340;3.240;2022-07-05T08:52:14;4.13;;;0.95;;
13797;SDS011;6970;51.340;3.240;2022-07-05T08:54:43;3.20;;;0.77;;
13797;SDS011;6970;51.340;3.240;2022-07-05T08:57:15;3.37;;;1.00;;
13797;SDS011;6970;51.340;3.240;2022-07-05T08:59:42;2.93;;;1.17;;
13797;SDS011;6970;51.340;3.240;2022-07-05T09:04:43;4.75;;;1.05;;
13797;SDS011;6970;51.340;3.240;2022-07-05T09:07:14;2.53;;;0.90;;
13797;SDS011;6970;51.340;3.240;2022-07-05T09:12:15;1.75;;;0.75;;
13797;SDS011;6970;51.340;3.240;2022-07-05T09:14:51;2.88;;;0.75;;
13797;SDS011;6970;51.340;3.240;2022-07-05T09:17:19;1.60;;;0.90;;
13797;SDS011;6970;51.340;3.240;2022-07-05T09:28:00;2.58;;;0.90;;
13797;SDS011;6970;51.340;3.240;2022-07-05T09:30:37;4.03;;;1.30;;
13797;SDS011;6970;51.340;3.240;2022-07-05T09:33:06;2.42;;;0.93;;
13797;SDS011;6970;51.340;3.240;2022-07-05T09:35:54;1.02;;;0.63;;
13797;SDS011;6970;51.340;3.240;2022-07-05T09:38:30;2.17;;;0.90;;
13797;SDS011;6970;51.340;3.240;2022-07-05T09:48:57;1.42;;;0.70;;
13797;SDS011;6970;51.340;3.240;2022-07-05T09:51:28;1.55;;;0.75;;
13797;SDS011;6970;51.340;3.240;2022-07-05T09:54:15;1.85;;;0.60;;
13797;SDS011;6970;51.340;3.240;2022-07-05T09:56:45;3.05;;;0.98;;
13797;SDS011;6970;51.340;3.240;2022-07-05T09:59:15;3.13;;;0.90;;
13797;SDS011;6970;51.340;3.240;2022-07-05T10:01:45;1.55;;;0.80;;
13797;SDS011;6970;51.340;3.240;2022-07-05T10:09:31;2.22;;;0.93;;
13797;SDS011;6970;51.340;3.240;2022-07-05T10:11:59;1.30;;;0.70;;
13797;SDS011;6970;51.340;3.240;2022-07-05T10:14:31;2.20;;;0.70;;
13797;SDS011;6970;51.340;3.240;2022-07-05T10:17:02;1.75;;;0.80;;
13797;SDS011;6970;51.340;3.240;2022-07-05T10:19:37;3.72;;;1.00;;
13797;SDS011;6970;51.340;3.240;2022-07-05T10:22:10;2.28;;;0.85;;
13797;SDS011;6970;51.340;3.240;2022-07-05T10:24:45;2.40;;;1.50;;
13797;SDS011;6970;51.340;3.240;2022-07-05T10:27:15;8.25;;;7.40;;
13797;SDS011;6970;51.340;3.240;2022-07-05T10:29:45;4.03;;;3.70;;
13797;SDS011;6970;51.340;3.240;2022-07-05T10:34:48;2.50;;;2.05;;
13797;SDS011;6970;51.340;3.240;2022-07-05T10:37:21;1.48;;;0.85;;
13797;SDS011;6970;51.340;3.240;2022-07-05T10:39:56;0.32;;;0.32;;
13797;SDS011;6970;51.340;3.240;2022-07-05T10:42:25;2.67;;;0.60;;
13797;SDS011;6970;51.340;3.240;2022-07-05T10:44:56;2.00;;;0.80;;
13797;SDS011;6970;51.340;3.240;2022-07-05T10:50:05;1.95;;;0.90;;
13797;SDS011;6970;51.340;3.240;2022-07-05T10:55:21;0.60;;;0.43;;
13797;SDS011;6970;51.340;3.240;2022-07-05T11:09:27;2.63;;;0.50;;
13797;SDS011;6970;51.340;3.240;2022-07-05T11:12:02;1.85;;;0.63;;
13797;SDS011;6970;51.340;3.240;2022-07-05T11:17:32;0.65;;;0.50;;
13797;SDS011;6970;51.340;3.240;2022-07-05T11:20:31;5.80;;;1.55;;
13797;SDS011;6970;51.340;3.240;2022-07-05T11:25:38;1.58;;;0.60;;
13797;SDS011;6970;51.340;3.240;2022-07-05T11:30:52;1.65;;;0.55;;
13797;SDS011;6970;51.340;3.240;2022-07-05T11:36:03;0.60;;;0.60;;
13797;SDS011;6970;51.340;3.240;2022-07-05T11:41:39;6.80;;;1.13;;
13797;SDS011;6970;51.340;3.240;2022-07-05T11:49:26;1.83;;;0.77;;
13797;SDS011;6970;51.340;3.240;2022-07-05T11:52:00;2.35;;;0.75;;
13797;SDS011;6970;51.340;3.240;2022-07-05T11:54:35;2.00;;;0.95;;
13797;SDS011;6970;51.340;3.240;2022-07-05T11:57:03;1.25;;;0.60;;
13797;SDS011;6970;51.340;3.240;2022-07-05T11:59:36;1.65;;;0.40;;
13797;SDS011;6970;51.340;3.240;2022-07-05T12:02:09;1.30;;;0.75;;
13797;SDS011;6970;51.340;3.240;2022-07-05T12:04:36;5.45;;;0.75;;
13797;SDS011;6970;51.340;3.240;2022-07-05T12:07:03;1.60;;;0.65;;
13797;SDS011;6970;51.340;3.240;2022-07-05T12:09:32;0.60;;;0.57;;
13797;SDS011;6970;51.340;3.240;2022-07-05T12:12:25;2.15;;;0.60;;
13797;SDS011;6970;51.340;3.240;2022-07-05T12:15:14;0.88;;;0.60;;
13797;SDS011;6970;51.340;3.240;2022-07-05T12:17:43;2.55;;;0.47;;
13797;SDS011;6970;51.340;3.240;2022-07-05T12:20:19;2.65;;;0.80;;
13797;SDS011;6970;51.340;3.240;2022-07-05T12:22:50;1.90;;;0.50;;
13797;SDS011;6970;51.340;3.240;2022-07-05T12:25:24;1.10;;;0.63;;
13797;SDS011;6970;51.340;3.240;2022-07-05T12:30:24;1.40;;;0.60;;
13797;SDS011;6970;51.340;3.240;2022-07-05T12:33:06;2.22;;;1.08;;
13797;SDS011;6970;51.340;3.240;2022-07-05T12:35:40;2.17;;;0.68;;
13797;SDS011;6970;51.340;3.240;2022-07-05T12:38:13;0.73;;;0.52;;
13797;SDS011;6970;51.340;3.240;2022-07-05T12:40:44;0.88;;;0.60;;
13797;SDS011;6970;51.340;3.240;2022-07-05T12:43:26;1.83;;;0.70;;
13797;SDS011;6970;51.340;3.240;2022-07-05T12:46:04;6.40;;;1.08;;
13797;SDS011;6970;51.340;3.240;2022-07-05T12:48:36;5.60;;;1.20;;
13797;SDS011;6970;51.340;3.240;2022-07-05T12:51:06;1.85;;;0.75;;
13797;SDS011;6970;51.340;3.240;2022-07-05T12:53:51;2.00;;;0.57;;
13797;SDS011;6970;51.340;3.240;2022-07-05T12:56:36;0.95;;;0.70;;
13797;SDS011;6970;51.340;3.240;2022-07-05T13:00:02;1.60;;;0.90;;
13797;SDS011;6970;51.340;3.240;2022-07-05T13:02:40;2.78;;;1.00;;
13797;SDS011;6970;51.340;3.240;2022-07-05T13:07:52;2.88;;;1.02;;
13797;SDS011;6970;51.340;3.240;2022-07-05T13:10:23;1.55;;;0.70;;
13797;SDS011;6970;51.340;3.240;2022-07-05T13:13:07;2.05;;;0.70;;
13797;SDS011;6970;51.340;3.240;2022-07-05T13:15:36;2.65;;;0.90;;
13797;SDS011;6970;51.340;3.240;2022-07-05T13:20:34;1.83;;;0.80;;
13797;SDS011;6970;51.340;3.240;2022-07-05T13:23:02;1.17;;;0.70;;
13797;SDS011;6970;51.340;3.240;2022-07-05T13:25:30;3.13;;;0.70;;
13797;SDS011;6970;51.340;3.240;2022-07-05T13:27:59;1.30;;;0.80;;
13797;SDS011;6970;51.340;3.240;2022-07-05T13:30:27;1.48;;;0.82;;
13797;SDS011;6970;51.340;3.240;2022-07-05T13:32:55;2.53;;;1.10;;
13797;SDS011;6970;51.340;3.240;2022-07-05T13:35:22;2.15;;;0.80;;
13797;SDS011;6970;51.340;3.240;2022-07-05T13:37:49;1.60;;;0.90;;
13797;SDS011;6970;51.340;3.240;2022-07-05T13:45:17;2.03;;;0.80;;
13797;SDS011;6970;51.340;3.240;2022-07-05T13:50:17;1.45;;;0.80;;
13797;SDS011;6970;51.340;3.240;2022-07-05T13:52:59;1.90;;;0.70;;
13797;SDS011;6970;51.340;3.240;2022-07-05T13:55:27;2.17;;;0.85;;
13797;SDS011;6970;51.340;3.240;2022-07-05T13:57:57;1.15;;;0.98;;
13797;SDS011;6970;51.340;3.240;2022-07-05T14:00:25;1.00;;;0.80;;
13797;SDS011;6970;51.340;3.240;2022-07-05T14:05:37;1.55;;;0.90;;
13797;SDS011;6970;51.340;3.240;2022-07-05T14:10:35;1.65;;;0.70;;
13797;SDS011;6970;51.340;3.240;2022-07-05T14:15:35;1.52;;;0.82;;
13797;SDS011;6970;51.340;3.240;2022-07-05T14:18:04;1.23;;;0.80;;
13797;SDS011;6970;51.340;3.240;2022-07-05T14:20:33;2.05;;;0.80;;
13797;SDS011;6970;51.340;3.240;2022-07-05T14:23:06;1.80;;;0.85;;
13797;SDS011;6970;51.340;3.240;2022-07-05T14:30:35;2.92;;;0.88;;
13797;SDS011;6970;51.340;3.240;2022-07-05T14:33:03;2.50;;;0.93;;
13797;SDS011;6970;51.340;3.240;2022-07-05T14:35:31;2.10;;;0.93;;
13797;SDS011;6970;51.340;3.240;2022-07-05T14:38:02;2.60;;;0.80;;
13797;SDS011;6970;51.340;3.240;2022-07-05T14:40:33;1.27;;;0.82;;
13797;SDS011;6970;51.340;3.240;2022-07-05T14:45:32;1.80;;;0.80;;
13797;SDS011;6970;51.340;3.240;2022-07-05T14:50:35;2.42;;;1.10;;
13797;SDS011;6970;51.340;3.240;2022-07-05T14:53:05;1.00;;;0.68;;
13797;SDS011;6970;51.340;3.240;2022-07-05T14:55:35;1.92;;;1.20;;
13797;SDS011;6970;51.340;3.240;2022-07-05T14:58:02;1.88;;;0.70;;
13797;SDS011;6970;51.340;3.240;2022-07-05T15:00:29;3.28;;;0.90;;
13797;SDS011;6970;51.340;3.240;2022-07-05T15:02:57;2.20;;;1.27;;
13797;SDS011;6970;51.340;3.240;2022-07-05T15:05:25;2.88;;;1.00;;
13797;SDS011;6970;51.340;3.240;2022-07-05T15:07:52;1.70;;;1.33;;
13797;SDS011;6970;51.340;3.240;2022-07-05T15:12:49;1.70;;;1.00;;
13797;SDS011;6970;51.340;3.240;2022-07-05T15:15:17;1.88;;;1.00;;
13797;SDS011;6970;51.340;3.240;2022-07-05T15:17:47;1.35;;;0.95;;
13797;SDS011;6970;51.340;3.240;2022-07-05T15:22:49;1.92;;;1.00;;
13797;SDS011;6970;51.340;3.240;2022-07-05T15:25:16;1.10;;;0.93;;
13797;SDS011;6970;51.340;3.240;2022-07-05T15:27:49;3.67;;;1.10;;
13797;SDS011;6970;51.340;3.240;2022-07-05T15:30:17;0.90;;;0.82;;
13797;SDS011;6970;51.340;3.240;2022-07-05T15:32:48;1.00;;;0.88;;
13797;SDS011;6970;51.340;3.240;2022-07-05T15:35:22;2.50;;;1.27;;
13797;SDS011;6970;51.340;3.240;2022-07-05T15:37:49;2.25;;;1.25;;
13797;SDS011;6970;51.340;3.240;2022-07-05T15:40:17;2.33;;;1.00;;
13797;SDS011;6970;51.340;3.240;2022-07-05T15:42:47;1.27;;;0.80;;
13797;SDS011;6970;51.340;3.240;2022-07-05T15:45:14;5.32;;;1.60;;
13797;SDS011;6970;51.340;3.240;2022-07-05T15:47:44;2.47;;;1.00;;
13797;SDS011;6970;51.340;3.240;2022-07-05T15:52:41;3.78;;;1.17;;
13797;SDS011;6970;51.340;3.240;2022-07-05T15:55:12;1.00;;;0.90;;
13797;SDS011;6970;51.340;3.240;2022-07-05T16:00:09;2.77;;;1.13;;
13797;SDS011;6970;51.340;3.240;2022-07-05T16:02:36;1.33;;;0.90;;
13797;SDS011;6970;51.340;3.240;2022-07-05T16:05:03;1.57;;;0.90;;
13797;SDS011;6970;51.340;3.240;2022-07-05T16:07:34;4.13;;;1.25;;
13797;SDS011;6970;51.340;3.240;2022-07-05T16:10:01;1.93;;;0.87;;
13797;SDS011;6970;51.340;3.240;2022-07-05T16:12:50;2.17;;;1.10;;
13797;SDS011;6970;51.340;3.240;2022-07-05T16:15:17;1.52;;;0.90;;
13797;SDS011;6970;51.340;3.240;2022-07-05T16:18:04;2.43;;;1.03;;
13797;SDS011;6970;51.340;3.240;2022-07-05T16:20:34;1.70;;;1.08;;
13797;SDS011;6970;51.340;3.240;2022-07-05T16:23:02;5.43;;;1.77;;
13797;SDS011;6970;51.340;3.240;2022-07-05T16:25:32;2.53;;;0.85;;
13797;SDS011;6970;51.340;3.240;2022-07-05T16:28:00;1.60;;;1.00;;
13797;SDS011;6970;51.340;3.240;2022-07-05T16:30:29;4.23;;;1.10;;
13797;SDS011;6970;51.340;3.240;2022-07-05T16:35:29;3.57;;;1.67;;
13797;SDS011;6970;51.340;3.240;2022-07-05T16:37:56;1.60;;;1.30;;
13797;SDS011;6970;51.340;3.240;2022-07-05T16:40:24;2.07;;;1.30;;
13797;SDS011;6970;51.340;3.240;2022-07-05T16:42:54;2.30;;;1.30;;
13797;SDS011;6970;51.340;3.240;2022-07-05T16:47:54;1.87;;;1.30;;
13797;SDS011;6970;51.340;3.240;2022-07-05T16:50:21;4.00;;;1.43;;
13797;SDS011;6970;51.340;3.240;2022-07-05T16:52:51;3.83;;;1.43;;
13797;SDS011;6970;51.340;3.240;2022-07-05T16:55:19;1.73;;;1.33;;
13797;SDS011;6970;51.340;3.240;2022-07-05T16:57:50;2.10;;;1.40;;
13797;SDS011;6970;51.340;3.240;2022-07-05T17:00:17;3.23;;;1.37;;
13797;SDS011;6970;51.340;3.240;2022-07-05T17:02:45;2.70;;;1.37;;
13797;SDS011;6970;51.340;3.240;2022-07-05T17:05:13;2.23;;;1.43;;
13797;SDS011;6970;51.340;3.240;2022-07-05T17:07:44;1.67;;;1.50;;
13797;SDS011;6970;51.340;3.240;2022-07-05T17:10:11;1.93;;;1.60;;
13797;SDS011;6970;51.340;3.240;2022-07-05T17:12:41;2.30;;;1.40;;
13797;SDS011;6970;51.340;3.240;2022-07-05T17:15:09;2.53;;;1.47;;
13797;SDS011;6970;51.340;3.240;2022-07-05T17:17:39;1.50;;;1.30;;
13797;SDS011;6970;51.340;3.240;2022-07-05T17:20:07;2.07;;;1.30;;
13797;SDS011;6970;51.340;3.240;2022-07-05T17:22:37;2.33;;;1.30;;
13797;SDS011;6970;51.340;3.240;2022-07-05T17:25:04;2.83;;;1.20;;
13797;SDS011;6970;51.340;3.240;2022-07-05T17:27:34;3.77;;;1.53;;
13797;SDS011;6970;51.340;3.240;2022-07-05T17:30:03;2.93;;;1.40;;
13797;SDS011;6970;51.340;3.240;2022-07-05T17:32:32;2.00;;;1.40;;
13797;SDS011;6970;51.340;3.240;2022-07-05T17:34:59;2.57;;;1.30;;
13797;SDS011;6970;51.340;3.240;2022-07-05T17:39:59;2.93;;;1.43;;
13797;SDS011;6970;51.340;3.240;2022-07-05T17:42:32;2.80;;;1.30;;
13797;SDS011;6970;51.340;3.240;2022-07-05T17:45:02;2.57;;;1.30;;
13797;SDS011;6970;51.340;3.240;2022-07-05T17:47:32;2.63;;;1.37;;
13797;SDS011;6970;51.340;3.240;2022-07-05T17:55:22;3.37;;;1.30;;
13797;SDS011;6970;51.340;3.240;2022-07-05T17:57:49;3.27;;;1.20;;
13797;SDS011;6970;51.340;3.240;2022-07-05T18:00:22;2.87;;;1.20;;
13797;SDS011;6970;51.340;3.240;2022-07-05T18:02:51;3.67;;;1.60;;